Welcome to American Weather

twcmaster

Members
  • Content count

    14
  • Joined

  • Last visited

About twcmaster

  1. The instruments are better sited for use by helicopter pilots looking for cross winds than weather people. The anemometer is right on the edge of the helipad where it meets the water and is not even on a pole. It is essentially on the ground on the helipad, which is raised above the water.
  2. Euro is updated here, but limited times/data available for free: http://www.pivotalweather.com/model.php?m=ECMWF&p=sfcmslp&rh=2016012200&fh=48&r=conus&dpdt=
  3. Is it me or were all the wind obs taken at the International Airport (TXKF) estimates? http://www.aviationweather.gov/adds/metars?station_ids=txkf&std_trans=standard&chk_metars=on&hoursStr=past+36+hours&submitmet=Submit Aviation Digital Data Service (ADDS) Output produced by METARs form (1755 UTC 18 October 2014) found at http://www.aviationweather.gov/adds/metars/ TXKF 181655Z 28014KT 9999 SCT018 SCT050 28/21 Q1010 RMK WND EST TXKF 181555Z 27014KT 9999 SCT018 27/21 Q1010 TXKF 181455Z 28015KT 9999 FEW018 27/22 Q1010 RMK WND EST TXKF 181355Z 28016KT 9999 FEW018 FEW300 27/22 Q1009 RMK WND EST TXKF 181255Z 27019KT 9999 SCT012 SCT150 26/22 Q1009 RMK WND EST TXKF 181155Z 27021KT 9999 FEW012 SCT150 SCT300 25/23 Q1008 RMK WND EST TXKF 181055Z 28022KT 9999 SCT012 BKN150 BKN300 25/23 Q1006 RMK WND EST TXKF 180955Z 27027KT 9999 SCT012 BKN150 BKN300 25/24 Q1005 RMK WND EST TXKF 180855Z 27034G42KT 9999 BKN012 BKN150 BKN300 25/24 Q1003 RMK WND EST TXKF 180755Z 27030G40KT 9999 VCSH BKN012 BKN150 BKN300 25/24 Q1002 RMK WND EST TXKF 180716Z 27033G42KT 9999 SHRA BKN012 BKN150 BKN300 25/24 Q1001 RMK WND EST PRESRR TXKF 180655Z 26037G48KT 9000 BLPY BKN012 BKN150 BKN300 25/24 Q0003 RMK WND EST PRESRR TXKF 180555Z 27040G50KT 9000 -RA BR OVC012 22/22 Q0980 RMK WND EST PRESRR TXKF 180542Z 27038G55KT 6000 -RA BR OVC012 22/22 Q0960 RMK WND EST PRESRR TXKF 180455Z 28051G61KT 3200 -RA BR OVC012 22/22 Q0922 RMK WND EST PRESRR TXKF 180355Z 28061G77KT 1600 RA BR OVC012 24/24 Q0982 RMK WND EST PRESRR TXKF 180255Z 28081G98KT 1600 RA BR OVC012 24/24 Q0968 RMK WND EST TXKF 180239Z 28065G77KT 3200 -RA BR OVC012 24/24 Q0967 RMK WND EST PRESRR TXKF 180206Z 27052G64KT 3200 -RA BR OVC012 24/24 Q0961 RMK WND EST TXKF 180155Z 27042G58KT 3200 -RA BR OVC012 24/24 Q0958 RMK WND EST TXKF 180139Z 27038G52KT 4000 -RA BR OVC012 24/24 Q0956 RMK WND EST PRESRR TXKF 180116Z 26025G36KT 4000 -RA BR OVC012 24/24 Q0953 RMK WND EST WSHFT16 TXKF 180055Z 18009KT 160V220 4000 -RA BR OVC012 24/24 Q0953 RMK WND EST TXKF 180041Z 15011KT 4000 -RA BR OVC012 24/24 Q0953 RMK WND EST TXKF 172355Z 12064G83KT 1600 +RA BR OVC012 24/24 Q0957 RMK WND EST PRESFR TXKF 172255Z 10066KT 1600 +RA BR OVC012 24/24 Q0973 RMK WND EST PRESFR TXKF 172155Z 08051G69KT 1600 +RA BR OVC012 24/24 Q0984 RMK WND EST PRESFR TXKF 172055Z 09039G58KT 1600 +RA BR OVC012 24/24 Q0991 RMK WND EST PRESFR TXKF 172005Z 09039G55KT 1600 +RA BR OVC012 24/24 Q994 RMK WND EST PRESFR TXKF 171958Z 09037G50KT 2SM RA BR BKN012 OVC026 24/24 Q996 RMK WND EST PRESFR TXKF 171855Z 09033G43KT 3200 RA BR SCT012 OVC026 26/23 Q0999 RMK WND EST PRESFR TXKF 171828Z 09034G45KT 3200 RA BR BKN012 OVC026 26/23 Q1000 RMK WND EST PRESFR TXKF 171755Z 10032G42KT 6000 RA BKN014 OVC033 26/23 Q1002 RMK WND EST PRESFR TXKF 171655Z 10029KT 9000 -RA BKN014 OVC033 26/23 Q1004 RMK WND EST TXKF 171555Z 11026KT 9999 VCSH SCT014 BKN033 OVC065 26/23 Q1006 RMK WND EST TXKF 171455Z 11025KT 9999 VCSH FEW014 BKN140 OVC300 26/23 Q1008 RMK WND EST TXKF 171355Z 12023KT 9999 SCT014 BKN033 OVC140 26/23 Q1009 RMK WND EST TXKF 171255Z 12021KT 9999 SCT014 BKN140 OVC300 26/24 Q1009 RMK WND EST TXKF 171155Z 12020KT 9999 SCT015 BKN140 OVC300 26/24 Q1009 RMK WND EST TXKF 171055Z 12021KT 9999 SCT015 BKN140 OVC300 26/23 Q1009 RMK WND EST TXKF 170955Z 13020KT 9999 SCT018 SCT065 BKN300 26/23 Q1009 RMK WND EST TXKF 170855Z 13018KT 9999 SCT018 SCT045 BKN300 25/23 Q1009 RMK WND EST TXKF 170755Z 13019KT 9999 FEW018 SCT045 BKN300 25/22 Q1010 RMK WND EST TXKF 170655Z 14017KT 9999 FEW018 SCT045 BKN300 25/22 Q1010 RMK WND EST
  4. Thundersnow in downtown Manhattan.
  5. Thanks for posting, I thought I was losing it. I am on the coast and there is another Davis station a mile or 2 away that is set back a little off the coast that is 9 degrees lower than mine. I compare readings all the time and they are usually only a degree off at most. My station (the higher temperature) is sited very well over grass away from any heat source (other than the water).
  6. I believe that is since 1900. According to Wikipedia, this is tied for 7th.